sensor_id;sensor_type;location;lat;lon;timestamp;P1;durP1;ratioP1;P2;durP2;ratioP2
11283;SDS011;5698;47.332;11.180;2023-04-05T00:01:07;5.00;;;4.40;;
11283;SDS011;5698;47.332;11.180;2023-04-05T00:03:36;6.30;;;4.03;;
11283;SDS011;5698;47.332;11.180;2023-04-05T00:06:04;4.97;;;4.30;;
11283;SDS011;5698;47.332;11.180;2023-04-05T00:08:33;6.80;;;4.43;;
11283;SDS011;5698;47.332;11.180;2023-04-05T00:11:01;4.90;;;3.97;;
11283;SDS011;5698;47.332;11.180;2023-04-05T00:13:28;4.33;;;3.67;;
11283;SDS011;5698;47.332;11.180;2023-04-05T00:15:55;4.07;;;3.77;;
11283;SDS011;5698;47.332;11.180;2023-04-05T00:18:25;4.47;;;4.00;;
11283;SDS011;5698;47.332;11.180;2023-04-05T00:20:52;4.03;;;3.73;;
11283;SDS011;5698;47.332;11.180;2023-04-05T00:23:19;5.10;;;4.00;;
11283;SDS011;5698;47.332;11.180;2023-04-05T00:25:48;4.00;;;3.57;;
11283;SDS011;5698;47.332;11.180;2023-04-05T00:28:15;4.40;;;4.00;;
11283;SDS011;5698;47.332;11.180;2023-04-05T00:30:42;4.67;;;4.27;;
11283;SDS011;5698;47.332;11.180;2023-04-05T00:33:10;6.00;;;4.33;;
11283;SDS011;5698;47.332;11.180;2023-04-05T00:35:38;6.83;;;3.77;;
11283;SDS011;5698;47.332;11.180;2023-04-05T00:38:05;4.07;;;3.47;;
11283;SDS011;5698;47.332;11.180;2023-04-05T00:40:32;4.23;;;3.70;;
11283;SDS011;5698;47.332;11.180;2023-04-05T00:43:00;4.53;;;3.87;;
11283;SDS011;5698;47.332;11.180;2023-04-05T00:45:27;6.03;;;4.43;;
11283;SDS011;5698;47.332;11.180;2023-04-05T00:47:54;3.47;;;3.17;;
11283;SDS011;5698;47.332;11.180;2023-04-05T00:50:22;4.10;;;3.70;;
11283;SDS011;5698;47.332;11.180;2023-04-05T00:52:49;6.83;;;4.30;;
11283;SDS011;5698;47.332;11.180;2023-04-05T00:55:17;5.53;;;3.97;;
11283;SDS011;5698;47.332;11.180;2023-04-05T00:57:44;4.37;;;3.97;;
11283;SDS011;5698;47.332;11.180;2023-04-05T01:00:15;4.40;;;4.00;;
11283;SDS011;5698;47.332;11.180;2023-04-05T01:02:43;4.13;;;3.77;;
11283;SDS011;5698;47.332;11.180;2023-04-05T01:05:18;4.67;;;4.13;;
11283;SDS011;5698;47.332;11.180;2023-04-05T01:07:53;5.00;;;4.50;;
11283;SDS011;5698;47.332;11.180;2023-04-05T01:10:26;4.93;;;4.43;;
11283;SDS011;5698;47.332;11.180;2023-04-05T01:12:59;5.33;;;4.10;;
11283;SDS011;5698;47.332;11.180;2023-04-05T01:15:27;4.43;;;4.03;;
11283;SDS011;5698;47.332;11.180;2023-04-05T01:17:54;4.23;;;3.83;;
11283;SDS011;5698;47.332;11.180;2023-04-05T01:20:22;5.60;;;3.63;;
11283;SDS011;5698;47.332;11.180;2023-04-05T01:23:08;3.87;;;3.57;;
11283;SDS011;5698;47.332;11.180;2023-04-05T01:25:58;4.60;;;4.10;;
11283;SDS011;5698;47.332;11.180;2023-04-05T01:28:55;4.37;;;3.80;;
11283;SDS011;5698;47.332;11.180;2023-04-05T01:31:39;4.40;;;3.80;;
11283;SDS011;5698;47.332;11.180;2023-04-05T01:34:12;4.03;;;3.67;;
11283;SDS011;5698;47.332;11.180;2023-04-05T01:36:48;4.63;;;3.63;;
11283;SDS011;5698;47.332;11.180;2023-04-05T01:39:17;4.10;;;3.70;;
11283;SDS011;5698;47.332;11.180;2023-04-05T01:41:46;4.50;;;4.17;;
11283;SDS011;5698;47.332;11.180;2023-04-05T01:44:13;4.43;;;3.90;;
11283;SDS011;5698;47.332;11.180;2023-04-05T01:46:41;4.70;;;4.30;;
11283;SDS011;5698;47.332;11.180;2023-04-05T01:49:08;4.60;;;4.00;;
11283;SDS011;5698;47.332;11.180;2023-04-05T01:51:35;5.47;;;4.80;;
11283;SDS011;5698;47.332;11.180;2023-04-05T01:54:06;4.20;;;3.80;;
11283;SDS011;5698;47.332;11.180;2023-04-05T01:56:33;4.53;;;4.13;;
11283;SDS011;5698;47.332;11.180;2023-04-05T01:59:00;4.47;;;4.00;;
11283;SDS011;5698;47.332;11.180;2023-04-05T02:01:27;5.33;;;3.87;;
11283;SDS011;5698;47.332;11.180;2023-04-05T02:03:55;4.03;;;3.70;;
11283;SDS011;5698;47.332;11.180;2023-04-05T02:06:22;4.17;;;3.87;;
11283;SDS011;5698;47.332;11.180;2023-04-05T02:08:50;4.50;;;4.10;;
11283;SDS011;5698;47.332;11.180;2023-04-05T02:11:17;4.30;;;3.90;;
11283;SDS011;5698;47.332;11.180;2023-04-05T02:13:45;5.17;;;4.30;;
11283;SDS011;5698;47.332;11.180;2023-04-05T02:16:12;5.10;;;4.60;;
11283;SDS011;5698;47.332;11.180;2023-04-05T02:18:39;4.50;;;4.10;;
11283;SDS011;5698;47.332;11.180;2023-04-05T02:21:09;5.10;;;4.60;;
11283;SDS011;5698;47.332;11.180;2023-04-05T02:23:36;4.67;;;4.17;;
11283;SDS011;5698;47.332;11.180;2023-04-05T02:26:03;3.90;;;3.60;;
11283;SDS011;5698;47.332;11.180;2023-04-05T02:28:30;4.87;;;4.23;;
11283;SDS011;5698;47.332;11.180;2023-04-05T02:30:57;5.90;;;3.73;;
11283;SDS011;5698;47.332;11.180;2023-04-05T02:33:24;5.57;;;4.30;;
11283;SDS011;5698;47.332;11.180;2023-04-05T02:35:51;4.97;;;4.50;;
11283;SDS011;5698;47.332;11.180;2023-04-05T02:38:20;5.63;;;4.33;;
11283;SDS011;5698;47.332;11.180;2023-04-05T02:40:47;5.07;;;3.90;;
11283;SDS011;5698;47.332;11.180;2023-04-05T02:43:14;5.37;;;4.67;;
11283;SDS011;5698;47.332;11.180;2023-04-05T02:45:41;7.03;;;4.87;;
11283;SDS011;5698;47.332;11.180;2023-04-05T02:48:09;4.80;;;4.40;;
11283;SDS011;5698;47.332;11.180;2023-04-05T02:50:35;4.67;;;4.23;;
11283;SDS011;5698;47.332;11.180;2023-04-05T02:53:04;5.50;;;4.53;;
11283;SDS011;5698;47.332;11.180;2023-04-05T02:55:32;5.37;;;4.67;;
11283;SDS011;5698;47.332;11.180;2023-04-05T02:57:59;5.73;;;4.53;;
11283;SDS011;5698;47.332;11.180;2023-04-05T03:00:26;4.83;;;4.33;;
11283;SDS011;5698;47.332;11.180;2023-04-05T03:02:53;4.73;;;4.27;;
11283;SDS011;5698;47.332;11.180;2023-04-05T03:05:21;5.20;;;4.00;;
11283;SDS011;5698;47.332;11.180;2023-04-05T03:07:48;4.60;;;3.57;;
11283;SDS011;5698;47.332;11.180;2023-04-05T03:10:16;4.70;;;4.30;;
11283;SDS011;5698;47.332;11.180;2023-04-05T03:12:45;4.07;;;3.77;;
11283;SDS011;5698;47.332;11.180;2023-04-05T03:15:11;5.43;;;4.40;;
11283;SDS011;5698;47.332;11.180;2023-04-05T03:17:38;5.03;;;4.53;;
11283;SDS011;5698;47.332;11.180;2023-04-05T03:20:08;5.30;;;4.77;;
11283;SDS011;5698;47.332;11.180;2023-04-05T03:22:36;4.70;;;4.13;;
11283;SDS011;5698;47.332;11.180;2023-04-05T03:25:03;4.50;;;3.73;;
11283;SDS011;5698;47.332;11.180;2023-04-05T03:27:31;5.20;;;4.50;;
11283;SDS011;5698;47.332;11.180;2023-04-05T03:29:59;4.73;;;4.23;;
11283;SDS011;5698;47.332;11.180;2023-04-05T03:32:26;4.83;;;4.33;;
11283;SDS011;5698;47.332;11.180;2023-04-05T03:34:53;4.70;;;4.20;;
11283;SDS011;5698;47.332;11.180;2023-04-05T03:37:20;4.50;;;4.10;;
11283;SDS011;5698;47.332;11.180;2023-04-05T03:39:47;4.60;;;4.20;;
11283;SDS011;5698;47.332;11.180;2023-04-05T03:42:14;7.53;;;4.97;;
11283;SDS011;5698;47.332;11.180;2023-04-05T03:44:42;5.40;;;4.20;;
11283;SDS011;5698;47.332;11.180;2023-04-05T03:47:10;4.47;;;4.03;;
11283;SDS011;5698;47.332;11.180;2023-04-05T03:49:38;4.60;;;4.20;;
11283;SDS011;5698;47.332;11.180;2023-04-05T03:52:05;5.43;;;4.93;;
11283;SDS011;5698;47.332;11.180;2023-04-05T03:54:33;5.40;;;4.83;;
11283;SDS011;5698;47.332;11.180;2023-04-05T03:57:00;5.57;;;4.20;;
11283;SDS011;5698;47.332;11.180;2023-04-05T03:59:27;5.30;;;4.80;;
11283;SDS011;5698;47.332;11.180;2023-04-05T04:01:54;5.27;;;4.83;;
11283;SDS011;5698;47.332;11.180;2023-04-05T04:04:22;6.20;;;5.60;;
11283;SDS011;5698;47.332;11.180;2023-04-05T04:06:49;6.60;;;4.83;;
11283;SDS011;5698;47.332;11.180;2023-04-05T04:09:16;6.30;;;5.13;;
11283;SDS011;5698;47.332;11.180;2023-04-05T04:11:43;5.47;;;4.97;;
11283;SDS011;5698;47.332;11.180;2023-04-05T04:14:10;5.70;;;5.13;;
11283;SDS011;5698;47.332;11.180;2023-04-05T04:16:37;5.17;;;4.67;;
11283;SDS011;5698;47.332;11.180;2023-04-05T04:19:04;6.87;;;5.30;;
11283;SDS011;5698;47.332;11.180;2023-04-05T04:21:32;5.60;;;5.00;;
11283;SDS011;5698;47.332;11.180;2023-04-05T04:23:59;6.80;;;4.90;;
11283;SDS011;5698;47.332;11.180;2023-04-05T04:26:27;6.77;;;5.67;;
11283;SDS011;5698;47.332;11.180;2023-04-05T04:28:54;6.37;;;5.10;;
11283;SDS011;5698;47.332;11.180;2023-04-05T04:31:21;6.60;;;5.60;;
11283;SDS011;5698;47.332;11.180;2023-04-05T04:33:48;4.97;;;4.40;;
11283;SDS011;5698;47.332;11.180;2023-04-05T04:36:15;5.77;;;4.83;;
11283;SDS011;5698;47.332;11.180;2023-04-05T04:38:52;5.67;;;4.83;;
11283;SDS011;5698;47.332;11.180;2023-04-05T04:41:20;4.73;;;4.33;;
11283;SDS011;5698;47.332;11.180;2023-04-05T04:43:50;6.00;;;4.67;;
11283;SDS011;5698;47.332;11.180;2023-04-05T04:46:19;5.57;;;5.07;;
11283;SDS011;5698;47.332;11.180;2023-04-05T04:48:51;6.03;;;4.93;;
11283;SDS011;5698;47.332;11.180;2023-04-05T04:51:18;4.90;;;4.40;;
11283;SDS011;5698;47.332;11.180;2023-04-05T04:53:45;5.93;;;5.33;;
11283;SDS011;5698;47.332;11.180;2023-04-05T04:56:13;5.13;;;4.60;;
11283;SDS011;5698;47.332;11.180;2023-04-05T04:58:40;6.43;;;4.97;;
11283;SDS011;5698;47.332;11.180;2023-04-05T05:01:07;5.40;;;4.90;;
11283;SDS011;5698;47.332;11.180;2023-04-05T05:03:34;5.47;;;4.97;;
11283;SDS011;5698;47.332;11.180;2023-04-05T05:06:02;5.17;;;4.67;;
11283;SDS011;5698;47.332;11.180;2023-04-05T05:08:30;6.03;;;4.60;;
11283;SDS011;5698;47.332;11.180;2023-04-05T05:10:57;5.30;;;4.80;;
11283;SDS011;5698;47.332;11.180;2023-04-05T05:13:25;5.67;;;4.97;;
11283;SDS011;5698;47.332;11.180;2023-04-05T05:15:52;5.13;;;4.63;;
11283;SDS011;5698;47.332;11.180;2023-04-05T05:18:19;5.90;;;4.53;;
11283;SDS011;5698;47.332;11.180;2023-04-05T05:20:49;5.50;;;5.00;;
11283;SDS011;5698;47.332;11.180;2023-04-05T05:23:16;5.00;;;4.53;;
11283;SDS011;5698;47.332;11.180;2023-04-05T05:25:45;6.07;;;4.50;;
11283;SDS011;5698;47.332;11.180;2023-04-05T05:28:12;4.27;;;3.87;;
11283;SDS011;5698;47.332;11.180;2023-04-05T05:30:40;5.03;;;4.53;;
11283;SDS011;5698;47.332;11.180;2023-04-05T05:33:07;8.53;;;4.97;;
11283;SDS011;5698;47.332;11.180;2023-04-05T05:35:34;6.17;;;4.67;;
11283;SDS011;5698;47.332;11.180;2023-04-05T05:38:02;4.87;;;4.37;;
11283;SDS011;5698;47.332;11.180;2023-04-05T05:40:29;5.77;;;4.27;;
11283;SDS011;5698;47.332;11.180;2023-04-05T05:42:56;5.23;;;4.67;;
11283;SDS011;5698;47.332;11.180;2023-04-05T05:45:22;5.20;;;4.70;;
11283;SDS011;5698;47.332;11.180;2023-04-05T05:47:51;5.17;;;4.50;;
11283;SDS011;5698;47.332;11.180;2023-04-05T05:50:18;5.20;;;4.47;;
11283;SDS011;5698;47.332;11.180;2023-04-05T05:52:45;4.80;;;4.20;;
11283;SDS011;5698;47.332;11.180;2023-04-05T05:55:12;6.33;;;4.87;;
11283;SDS011;5698;47.332;11.180;2023-04-05T05:57:39;5.97;;;4.63;;
11283;SDS011;5698;47.332;11.180;2023-04-05T06:00:07;5.83;;;4.70;;
11283;SDS011;5698;47.332;11.180;2023-04-05T06:02:34;5.37;;;4.50;;
11283;SDS011;5698;47.332;11.180;2023-04-05T06:05:03;5.37;;;4.87;;
11283;SDS011;5698;47.332;11.180;2023-04-05T06:07:34;5.20;;;4.53;;
11283;SDS011;5698;47.332;11.180;2023-04-05T06:10:01;9.37;;;5.47;;
11283;SDS011;5698;47.332;11.180;2023-04-05T06:12:28;9.47;;;6.03;;
11283;SDS011;5698;47.332;11.180;2023-04-05T06:14:55;7.13;;;5.43;;
11283;SDS011;5698;47.332;11.180;2023-04-05T06:17:22;5.77;;;5.17;;
11283;SDS011;5698;47.332;11.180;2023-04-05T06:19:49;7.47;;;4.93;;
11283;SDS011;5698;47.332;11.180;2023-04-05T06:22:18;5.07;;;4.57;;
11283;SDS011;5698;47.332;11.180;2023-04-05T06:24:47;5.40;;;4.80;;
11283;SDS011;5698;47.332;11.180;2023-04-05T06:27:14;6.70;;;5.13;;
11283;SDS011;5698;47.332;11.180;2023-04-05T06:29:41;7.23;;;6.07;;
11283;SDS011;5698;47.332;11.180;2023-04-05T06:32:08;11.73;;;5.67;;
11283;SDS011;5698;47.332;11.180;2023-04-05T06:34:35;4.83;;;4.33;;
11283;SDS011;5698;47.332;11.180;2023-04-05T06:37:02;6.37;;;5.37;;
11283;SDS011;5698;47.332;11.180;2023-04-05T06:39:31;6.73;;;4.93;;
11283;SDS011;5698;47.332;11.180;2023-04-05T06:41:58;7.33;;;6.00;;
11283;SDS011;5698;47.332;11.180;2023-04-05T06:44:25;7.37;;;4.77;;
11283;SDS011;5698;47.332;11.180;2023-04-05T06:46:52;6.93;;;4.67;;
11283;SDS011;5698;47.332;11.180;2023-04-05T06:49:19;5.67;;;4.60;;
11283;SDS011;5698;47.332;11.180;2023-04-05T06:51:46;5.60;;;4.77;;
11283;SDS011;5698;47.332;11.180;2023-04-05T06:54:13;5.57;;;4.90;;
11283;SDS011;5698;47.332;11.180;2023-04-05T06:56:42;4.80;;;4.23;;
11283;SDS011;5698;47.332;11.180;2023-04-05T06:59:09;5.47;;;3.93;;
11283;SDS011;5698;47.332;11.180;2023-04-05T07:01:36;4.43;;;3.83;;
11283;SDS011;5698;47.332;11.180;2023-04-05T07:04:03;4.33;;;3.93;;
11283;SDS011;5698;47.332;11.180;2023-04-05T07:06:30;6.30;;;4.60;;
11283;SDS011;5698;47.332;11.180;2023-04-05T07:08:58;5.90;;;4.60;;
11283;SDS011;5698;47.332;11.180;2023-04-05T07:11:25;4.80;;;3.97;;
11283;SDS011;5698;47.332;11.180;2023-04-05T07:13:53;5.90;;;4.43;;
11283;SDS011;5698;47.332;11.180;2023-04-05T07:16:20;4.60;;;4.20;;
11283;SDS011;5698;47.332;11.180;2023-04-05T07:18:47;4.07;;;3.73;;
11283;SDS011;5698;47.332;11.180;2023-04-05T07:21:15;5.03;;;3.70;;
11283;SDS011;5698;47.332;11.180;2023-04-05T07:23:42;4.13;;;3.73;;
11283;SDS011;5698;47.332;11.180;2023-04-05T07:26:09;6.87;;;3.97;;
11283;SDS011;5698;47.332;11.180;2023-04-05T07:28:36;4.87;;;3.90;;
11283;SDS011;5698;47.332;11.180;2023-04-05T07:31:05;6.07;;;4.60;;
11283;SDS011;5698;47.332;11.180;2023-04-05T07:33:32;5.93;;;3.80;;
11283;SDS011;5698;47.332;11.180;2023-04-05T07:36:00;5.47;;;4.27;;
11283;SDS011;5698;47.332;11.180;2023-04-05T07:38:27;5.57;;;4.20;;
11283;SDS011;5698;47.332;11.180;2023-04-05T07:40:55;3.97;;;3.60;;
11283;SDS011;5698;47.332;11.180;2023-04-05T07:43:22;4.20;;;3.80;;
11283;SDS011;5698;47.332;11.180;2023-04-05T07:45:50;5.57;;;3.83;;
11283;SDS011;5698;47.332;11.180;2023-04-05T07:48:19;4.20;;;3.80;;
11283;SDS011;5698;47.332;11.180;2023-04-05T07:50:46;5.50;;;3.90;;
11283;SDS011;5698;47.332;11.180;2023-04-05T07:53:13;5.23;;;3.87;;
11283;SDS011;5698;47.332;11.180;2023-04-05T07:55:41;4.80;;;3.97;;
11283;SDS011;5698;47.332;11.180;2023-04-05T07:58:08;5.17;;;3.37;;
11283;SDS011;5698;47.332;11.180;2023-04-05T08:00:35;4.10;;;3.67;;
11283;SDS011;5698;47.332;11.180;2023-04-05T08:03:02;5.17;;;3.67;;
11283;SDS011;5698;47.332;11.180;2023-04-05T08:05:31;4.37;;;3.97;;
11283;SDS011;5698;47.332;11.180;2023-04-05T08:07:58;3.70;;;3.40;;
11283;SDS011;5698;47.332;11.180;2023-04-05T08:10:25;4.80;;;3.40;;
11283;SDS011;5698;47.332;11.180;2023-04-05T08:12:52;4.20;;;3.07;;
11283;SDS011;5698;47.332;11.180;2023-04-05T08:15:19;4.13;;;3.30;;
11283;SDS011;5698;47.332;11.180;2023-04-05T08:17:46;6.00;;;3.70;;
11283;SDS011;5698;47.332;11.180;2023-04-05T08:20:13;6.00;;;3.47;;
11283;SDS011;5698;47.332;11.180;2023-04-05T08:22:42;4.43;;;3.47;;
11283;SDS011;5698;47.332;11.180;2023-04-05T08:25:09;3.60;;;3.30;;
11283;SDS011;5698;47.332;11.180;2023-04-05T08:27:36;3.87;;;3.40;;
11283;SDS011;5698;47.332;11.180;2023-04-05T08:30:03;3.70;;;3.33;;
11283;SDS011;5698;47.332;11.180;2023-04-05T08:32:32;3.53;;;3.23;;
11283;SDS011;5698;47.332;11.180;2023-04-05T08:34:59;3.57;;;3.20;;
11283;SDS011;5698;47.332;11.180;2023-04-05T08:37:26;5.17;;;3.10;;
11283;SDS011;5698;47.332;11.180;2023-04-05T08:39:54;3.70;;;3.30;;
11283;SDS011;5698;47.332;11.180;2023-04-05T08:42:25;4.60;;;4.00;;
11283;SDS011;5698;47.332;11.180;2023-04-05T08:44:59;3.60;;;3.30;;
11283;SDS011;5698;47.332;11.180;2023-04-05T08:47:29;3.00;;;2.77;;
11283;SDS011;5698;47.332;11.180;2023-04-05T08:49:56;2.80;;;2.53;;
11283;SDS011;5698;47.332;11.180;2023-04-05T08:52:24;3.53;;;2.47;;
11283;SDS011;5698;47.332;11.180;2023-04-05T08:54:52;2.80;;;2.53;;
11283;SDS011;5698;47.332;11.180;2023-04-05T08:57:22;4.50;;;2.90;;
11283;SDS011;5698;47.332;11.180;2023-04-05T08:59:51;3.87;;;2.67;;
11283;SDS011;5698;47.332;11.180;2023-04-05T09:02:21;2.50;;;2.30;;
11283;SDS011;5698;47.332;11.180;2023-04-05T09:04:50;3.30;;;2.57;;
11283;SDS011;5698;47.332;11.180;2023-04-05T09:07:17;3.20;;;2.77;;
11283;SDS011;5698;47.332;11.180;2023-04-05T09:09:47;6.33;;;2.77;;
11283;SDS011;5698;47.332;11.180;2023-04-05T09:12:18;3.40;;;2.73;;
11283;SDS011;5698;47.332;11.180;2023-04-05T09:14:48;2.47;;;2.27;;
11283;SDS011;5698;47.332;11.180;2023-04-05T09:17:16;2.73;;;2.50;;
11283;SDS011;5698;47.332;11.180;2023-04-05T09:19:44;3.10;;;2.30;;
11283;SDS011;5698;47.332;11.180;2023-04-05T09:22:14;3.93;;;2.40;;
11283;SDS011;5698;47.332;11.180;2023-04-05T09:24:43;2.23;;;2.03;;
11283;SDS011;5698;47.332;11.180;2023-04-05T09:27:11;2.30;;;1.80;;
11283;SDS011;5698;47.332;11.180;2023-04-05T09:29:39;2.47;;;1.70;;
11283;SDS011;5698;47.332;11.180;2023-04-05T09:32:08;2.10;;;1.90;;
11283;SDS011;5698;47.332;11.180;2023-04-05T09:34:37;1.77;;;1.67;;
11283;SDS011;5698;47.332;11.180;2023-04-05T09:37:11;2.17;;;1.67;;
11283;SDS011;5698;47.332;11.180;2023-04-05T09:39:39;3.20;;;2.37;;
11283;SDS011;5698;47.332;11.180;2023-04-05T09:42:06;3.27;;;2.50;;
11283;SDS011;5698;47.332;11.180;2023-04-05T09:44:47;3.30;;;2.13;;
11283;SDS011;5698;47.332;11.180;2023-04-05T09:47:16;2.60;;;1.90;;
11283;SDS011;5698;47.332;11.180;2023-04-05T09:49:44;2.00;;;1.80;;
11283;SDS011;5698;47.332;11.180;2023-04-05T09:52:18;2.77;;;2.20;;
11283;SDS011;5698;47.332;11.180;2023-04-05T09:54:51;2.73;;;2.40;;
11283;SDS011;5698;47.332;11.180;2023-04-05T09:57:20;2.77;;;2.10;;
11283;SDS011;5698;47.332;11.180;2023-04-05T09:59:48;1.90;;;1.80;;
11283;SDS011;5698;47.332;11.180;2023-04-05T10:02:16;3.17;;;2.10;;
11283;SDS011;5698;47.332;11.180;2023-04-05T10:04:43;3.30;;;2.47;;
11283;SDS011;5698;47.332;11.180;2023-04-05T10:07:13;4.10;;;2.57;;
11283;SDS011;5698;47.332;11.180;2023-04-05T10:09:42;2.40;;;2.20;;
11283;SDS011;5698;47.332;11.180;2023-04-05T10:12:11;2.83;;;2.47;;
11283;SDS011;5698;47.332;11.180;2023-04-05T10:14:43;3.17;;;2.07;;
11283;SDS011;5698;47.332;11.180;2023-04-05T10:17:11;2.63;;;2.27;;
11283;SDS011;5698;47.332;11.180;2023-04-05T10:19:52;2.40;;;2.20;;
11283;SDS011;5698;47.332;11.180;2023-04-05T10:22:28;2.60;;;2.30;;
11283;SDS011;5698;47.332;11.180;2023-04-05T10:25:04;3.27;;;2.07;;
11283;SDS011;5698;47.332;11.180;2023-04-05T10:27:34;2.07;;;1.87;;
11283;SDS011;5698;47.332;11.180;2023-04-05T10:30:07;2.20;;;1.90;;
11283;SDS011;5698;47.332;11.180;2023-04-05T10:32:40;2.10;;;1.90;;
11283;SDS011;5698;47.332;11.180;2023-04-05T10:35:21;2.63;;;2.00;;
11283;SDS011;5698;47.332;11.180;2023-04-05T10:37:58;2.00;;;1.80;;
11283;SDS011;5698;47.332;11.180;2023-04-05T10:40:37;2.20;;;1.97;;
11283;SDS011;5698;47.332;11.180;2023-04-05T10:43:06;2.33;;;1.90;;
11283;SDS011;5698;47.332;11.180;2023-04-05T10:45:40;2.60;;;2.00;;
11283;SDS011;5698;47.332;11.180;2023-04-05T10:48:13;2.47;;;1.93;;
11283;SDS011;5698;47.332;11.180;2023-04-05T10:50:46;2.47;;;1.60;;
11283;SDS011;5698;47.332;11.180;2023-04-05T10:53:14;2.67;;;2.07;;
11283;SDS011;5698;47.332;11.180;2023-04-05T10:55:42;1.93;;;1.83;;
11283;SDS011;5698;47.332;11.180;2023-04-05T10:58:10;2.20;;;2.00;;
11283;SDS011;5698;47.332;11.180;2023-04-05T11:00:39;2.80;;;2.40;;
11283;SDS011;5698;47.332;11.180;2023-04-05T11:03:06;2.30;;;2.10;;
11283;SDS011;5698;47.332;11.180;2023-04-05T11:05:34;2.77;;;2.00;;
11283;SDS011;5698;47.332;11.180;2023-04-05T11:08:04;2.00;;;1.83;;
11283;SDS011;5698;47.332;11.180;2023-04-05T11:10:33;1.73;;;1.60;;
11283;SDS011;5698;47.332;11.180;2023-04-05T11:13:02;2.13;;;1.90;;
11283;SDS011;5698;47.332;11.180;2023-04-05T11:15:33;2.23;;;2.03;;
11283;SDS011;5698;47.332;11.180;2023-04-05T11:18:01;2.10;;;1.90;;
11283;SDS011;5698;47.332;11.180;2023-04-05T11:20:38;1.73;;;1.63;;
11283;SDS011;5698;47.332;11.180;2023-04-05T11:23:07;4.03;;;1.63;;
11283;SDS011;5698;47.332;11.180;2023-04-05T11:25:36;2.37;;;1.70;;
11283;SDS011;5698;47.332;11.180;2023-04-05T11:28:04;1.70;;;1.50;;
11283;SDS011;5698;47.332;11.180;2023-04-05T11:30:45;1.70;;;1.60;;
11283;SDS011;5698;47.332;11.180;2023-04-05T11:36:04;2.23;;;2.03;;
11283;SDS011;5698;47.332;11.180;2023-04-05T11:38:33;2.47;;;1.80;;
11283;SDS011;5698;47.332;11.180;2023-04-05T11:41:10;2.00;;;1.80;;
11283;SDS011;5698;47.332;11.180;2023-04-05T11:43:41;2.17;;;1.87;;
11283;SDS011;5698;47.332;11.180;2023-04-05T11:46:08;2.13;;;1.70;;
11283;SDS011;5698;47.332;11.180;2023-04-05T11:48:36;1.70;;;1.60;;
11283;SDS011;5698;47.332;11.180;2023-04-05T11:51:06;3.27;;;1.60;;
11283;SDS011;5698;47.332;11.180;2023-04-05T11:53:35;2.13;;;1.90;;
11283;SDS011;5698;47.332;11.180;2023-04-05T11:56:06;1.97;;;1.77;;
11283;SDS011;5698;47.332;11.180;2023-04-05T11:58:34;1.90;;;1.70;;
11283;SDS011;5698;47.332;11.180;2023-04-05T12:01:03;2.37;;;2.13;;
11283;SDS011;5698;47.332;11.180;2023-04-05T12:03:32;4.07;;;1.90;;
11283;SDS011;5698;47.332;11.180;2023-04-05T12:06:00;1.67;;;1.57;;
11283;SDS011;5698;47.332;11.180;2023-04-05T12:08:39;1.90;;;1.70;;
11283;SDS011;5698;47.332;11.180;2023-04-05T12:11:07;2.30;;;1.70;;
11283;SDS011;5698;47.332;11.180;2023-04-05T12:13:35;2.20;;;2.00;;
11283;SDS011;5698;47.332;11.180;2023-04-05T12:16:04;2.10;;;1.77;;
11283;SDS011;5698;47.332;11.180;2023-04-05T12:18:33;1.87;;;1.70;;
11283;SDS011;5698;47.332;11.180;2023-04-05T12:21:01;2.23;;;1.87;;
11283;SDS011;5698;47.332;11.180;2023-04-05T12:23:29;1.70;;;1.60;;
11283;SDS011;5698;47.332;11.180;2023-04-05T12:25:58;3.30;;;1.87;;
11283;SDS011;5698;47.332;11.180;2023-04-05T12:34:05;2.00;;;1.73;;
11283;SDS011;5698;47.332;11.180;2023-04-05T12:36:33;1.83;;;1.70;;
11283;SDS011;5698;47.332;11.180;2023-04-05T12:39:00;2.03;;;1.70;;
11283;SDS011;5698;47.332;11.180;2023-04-05T12:41:33;1.87;;;1.77;;
11283;SDS011;5698;47.332;11.180;2023-04-05T12:44:03;2.00;;;1.80;;
11283;SDS011;5698;47.332;11.180;2023-04-05T12:46:37;1.87;;;1.60;;
11283;SDS011;5698;47.332;11.180;2023-04-05T12:49:05;3.73;;;1.80;;
11283;SDS011;5698;47.332;11.180;2023-04-05T12:51:35;1.70;;;1.60;;
11283;SDS011;5698;47.332;11.180;2023-04-05T12:54:06;2.43;;;1.93;;
11283;SDS011;5698;47.332;11.180;2023-04-05T12:56:34;1.83;;;1.73;;
11283;SDS011;5698;47.332;11.180;2023-04-05T12:59:03;1.70;;;1.60;;
11283;SDS011;5698;47.332;11.180;2023-04-05T13:01:31;2.07;;;1.77;;
11283;SDS011;5698;47.332;11.180;2023-04-05T13:03:58;2.10;;;1.73;;
11283;SDS011;5698;47.332;11.180;2023-04-05T13:06:26;2.53;;;1.80;;
11283;SDS011;5698;47.332;11.180;2023-04-05T13:08:53;3.87;;;2.27;;
11283;SDS011;5698;47.332;11.180;2023-04-05T13:11:20;2.10;;;1.90;;
11283;SDS011;5698;47.332;11.180;2023-04-05T13:13:48;2.50;;;1.70;;
11283;SDS011;5698;47.332;11.180;2023-04-05T13:16:15;2.67;;;1.60;;
11283;SDS011;5698;47.332;11.180;2023-04-05T13:18:42;1.80;;;1.50;;
11283;SDS011;5698;47.332;11.180;2023-04-05T13:21:10;2.33;;;1.93;;
11283;SDS011;5698;47.332;11.180;2023-04-05T13:23:37;2.57;;;1.70;;
11283;SDS011;5698;47.332;11.180;2023-04-05T13:26:05;1.90;;;1.70;;
11283;SDS011;5698;47.332;11.180;2023-04-05T13:28:33;2.10;;;1.90;;
11283;SDS011;5698;47.332;11.180;2023-04-05T13:31:02;2.47;;;2.17;;
11283;SDS011;5698;47.332;11.180;2023-04-05T13:33:30;2.33;;;1.93;;
11283;SDS011;5698;47.332;11.180;2023-04-05T13:35:58;3.17;;;2.13;;
11283;SDS011;5698;47.332;11.180;2023-04-05T13:38:25;2.00;;;1.80;;
11283;SDS011;5698;47.332;11.180;2023-04-05T13:40:52;2.37;;;1.73;;
11283;SDS011;5698;47.332;11.180;2023-04-05T13:43:19;2.27;;;1.97;;
11283;SDS011;5698;47.332;11.180;2023-04-05T13:45:46;3.10;;;2.03;;
11283;SDS011;5698;47.332;11.180;2023-04-05T13:48:14;2.63;;;1.97;;
11283;SDS011;5698;47.332;11.180;2023-04-05T13:50:41;2.03;;;1.80;;
11283;SDS011;5698;47.332;11.180;2023-04-05T13:53:08;1.80;;;1.70;;
11283;SDS011;5698;47.332;11.180;2023-04-05T13:55:35;2.07;;;1.87;;
11283;SDS011;5698;47.332;11.180;2023-04-05T13:58:03;2.00;;;1.77;;
11283;SDS011;5698;47.332;11.180;2023-04-05T14:00:30;2.33;;;1.80;;
11283;SDS011;5698;47.332;11.180;2023-04-05T14:02:57;2.20;;;2.00;;
11283;SDS011;5698;47.332;11.180;2023-04-05T14:05:26;2.13;;;1.93;;
11283;SDS011;5698;47.332;11.180;2023-04-05T14:07:52;2.50;;;2.30;;
11283;SDS011;5698;47.332;11.180;2023-04-05T14:10:19;2.83;;;1.80;;
11283;SDS011;5698;47.332;11.180;2023-04-05T14:12:47;2.23;;;1.90;;
11283;SDS011;5698;47.332;11.180;2023-04-05T14:15:15;2.30;;;2.00;;
11283;SDS011;5698;47.332;11.180;2023-04-05T14:17:42;2.33;;;2.13;;
11283;SDS011;5698;47.332;11.180;2023-04-05T14:20:09;1.97;;;1.87;;
11283;SDS011;5698;47.332;11.180;2023-04-05T14:22:38;2.50;;;2.27;;
11283;SDS011;5698;47.332;11.180;2023-04-05T14:25:05;3.23;;;2.40;;
11283;SDS011;5698;47.332;11.180;2023-04-05T14:27:33;2.40;;;2.20;;
11283;SDS011;5698;47.332;11.180;2023-04-05T14:30:05;2.90;;;2.37;;
11283;SDS011;5698;47.332;11.180;2023-04-05T14:32:33;3.37;;;2.43;;
11283;SDS011;5698;47.332;11.180;2023-04-05T14:35:00;2.97;;;2.43;;
11283;SDS011;5698;47.332;11.180;2023-04-05T14:37:28;2.50;;;2.23;;
11283;SDS011;5698;47.332;11.180;2023-04-05T14:39:56;2.60;;;2.17;;
11283;SDS011;5698;47.332;11.180;2023-04-05T14:42:23;3.17;;;2.30;;
11283;SDS011;5698;47.332;11.180;2023-04-05T14:44:50;2.77;;;2.37;;
11283;SDS011;5698;47.332;11.180;2023-04-05T14:47:17;2.87;;;2.43;;
11283;SDS011;5698;47.332;11.180;2023-04-05T14:49:44;3.80;;;2.63;;
11283;SDS011;5698;47.332;11.180;2023-04-05T14:52:12;2.83;;;2.20;;
11283;SDS011;5698;47.332;11.180;2023-04-05T14:54:39;3.20;;;2.90;;
11283;SDS011;5698;47.332;11.180;2023-04-05T14:57:07;3.47;;;2.50;;
11283;SDS011;5698;47.332;11.180;2023-04-05T14:59:34;2.63;;;2.43;;
11283;SDS011;5698;47.332;11.180;2023-04-05T15:02:01;3.10;;;2.80;;
11283;SDS011;5698;47.332;11.180;2023-04-05T15:04:28;3.17;;;2.80;;